sensor_id;sensor_type;location;lat;lon;timestamp;P1;durP1;ratioP1;P2;durP2;ratioP2
14381;SDS011;7275;50.328;8.720;2023-02-12T00:00:02;16.73;;;13.60;;
14381;SDS011;7275;50.328;8.720;2023-02-12T00:02:33;16.07;;;12.77;;
14381;SDS011;7275;50.328;8.720;2023-02-12T00:05:00;19.33;;;14.83;;
14381;SDS011;7275;50.328;8.720;2023-02-12T00:07:28;17.97;;;13.87;;
14381;SDS011;7275;50.328;8.720;2023-02-12T00:09:57;16.33;;;12.90;;
14381;SDS011;7275;50.328;8.720;2023-02-12T00:12:25;17.30;;;13.70;;
14381;SDS011;7275;50.328;8.720;2023-02-12T00:14:52;16.67;;;13.23;;
14381;SDS011;7275;50.328;8.720;2023-02-12T00:17:20;16.93;;;13.10;;
14381;SDS011;7275;50.328;8.720;2023-02-12T00:19:47;16.33;;;12.63;;
14381;SDS011;7275;50.328;8.720;2023-02-12T00:22:14;16.13;;;12.87;;
14381;SDS011;7275;50.328;8.720;2023-02-12T00:24:42;18.30;;;13.53;;
14381;SDS011;7275;50.328;8.720;2023-02-12T00:27:11;17.80;;;13.80;;
14381;SDS011;7275;50.328;8.720;2023-02-12T00:29:38;17.30;;;13.50;;
14381;SDS011;7275;50.328;8.720;2023-02-12T00:32:06;18.90;;;14.67;;
14381;SDS011;7275;50.328;8.720;2023-02-12T00:34:34;16.77;;;13.27;;
14381;SDS011;7275;50.328;8.720;2023-02-12T00:37:01;18.87;;;14.37;;
14381;SDS011;7275;50.328;8.720;2023-02-12T00:39:28;19.30;;;14.77;;
14381;SDS011;7275;50.328;8.720;2023-02-12T00:41:56;18.03;;;13.90;;
14381;SDS011;7275;50.328;8.720;2023-02-12T00:44:25;18.50;;;14.53;;
14381;SDS011;7275;50.328;8.720;2023-02-12T00:46:52;18.53;;;14.37;;
14381;SDS011;7275;50.328;8.720;2023-02-12T00:49:20;19.83;;;14.93;;
14381;SDS011;7275;50.328;8.720;2023-02-12T00:51:47;16.40;;;13.00;;
14381;SDS011;7275;50.328;8.720;2023-02-12T00:54:15;17.33;;;13.90;;
14381;SDS011;7275;50.328;8.720;2023-02-12T00:56:43;16.33;;;13.47;;
14381;SDS011;7275;50.328;8.720;2023-02-12T00:59:10;19.03;;;14.07;;
14381;SDS011;7275;50.328;8.720;2023-02-12T01:01:39;16.13;;;13.37;;
14381;SDS011;7275;50.328;8.720;2023-02-12T01:04:07;18.63;;;14.50;;
14381;SDS011;7275;50.328;8.720;2023-02-12T01:06:35;20.90;;;15.97;;
14381;SDS011;7275;50.328;8.720;2023-02-12T01:09:02;18.20;;;13.47;;
14381;SDS011;7275;50.328;8.720;2023-02-12T01:11:30;18.87;;;14.43;;
14381;SDS011;7275;50.328;8.720;2023-02-12T01:13:57;18.47;;;14.97;;
14381;SDS011;7275;50.328;8.720;2023-02-12T01:16:26;16.90;;;12.30;;
14381;SDS011;7275;50.328;8.720;2023-02-12T01:18:55;19.27;;;14.03;;
14381;SDS011;7275;50.328;8.720;2023-02-12T01:21:24;17.53;;;13.27;;
14381;SDS011;7275;50.328;8.720;2023-02-12T01:23:53;14.73;;;12.43;;
14381;SDS011;7275;50.328;8.720;2023-02-12T01:26:20;14.50;;;11.90;;
14381;SDS011;7275;50.328;8.720;2023-02-12T01:28:49;15.20;;;11.87;;
14381;SDS011;7275;50.328;8.720;2023-02-12T01:31:19;18.47;;;13.50;;
14381;SDS011;7275;50.328;8.720;2023-02-12T01:33:49;19.20;;;14.77;;
14381;SDS011;7275;50.328;8.720;2023-02-12T01:36:20;23.10;;;15.53;;
14381;SDS011;7275;50.328;8.720;2023-02-12T01:38:48;21.10;;;16.10;;
14381;SDS011;7275;50.328;8.720;2023-02-12T01:41:16;18.17;;;14.70;;
14381;SDS011;7275;50.328;8.720;2023-02-12T01:43:45;17.77;;;13.80;;
14381;SDS011;7275;50.328;8.720;2023-02-12T01:46:36;18.23;;;13.83;;
14381;SDS011;7275;50.328;8.720;2023-02-12T01:49:05;18.47;;;14.10;;
14381;SDS011;7275;50.328;8.720;2023-02-12T01:51:37;17.90;;;13.73;;
14381;SDS011;7275;50.328;8.720;2023-02-12T01:54:07;19.07;;;14.70;;
14381;SDS011;7275;50.328;8.720;2023-02-12T01:56:37;18.60;;;14.97;;
14381;SDS011;7275;50.328;8.720;2023-02-12T01:59:05;18.33;;;13.93;;
14381;SDS011;7275;50.328;8.720;2023-02-12T02:01:34;19.77;;;14.03;;
14381;SDS011;7275;50.328;8.720;2023-02-12T02:04:03;21.33;;;16.17;;
14381;SDS011;7275;50.328;8.720;2023-02-12T02:06:35;17.60;;;13.67;;
14381;SDS011;7275;50.328;8.720;2023-02-12T02:09:08;18.83;;;13.43;;
14381;SDS011;7275;50.328;8.720;2023-02-12T02:11:35;17.03;;;12.97;;
14381;SDS011;7275;50.328;8.720;2023-02-12T02:14:20;15.83;;;12.73;;
14381;SDS011;7275;50.328;8.720;2023-02-12T02:17:09;16.73;;;13.10;;
14381;SDS011;7275;50.328;8.720;2023-02-12T02:19:51;17.90;;;13.13;;
14381;SDS011;7275;50.328;8.720;2023-02-12T02:22:41;16.33;;;12.33;;
14381;SDS011;7275;50.328;8.720;2023-02-12T02:25:21;18.40;;;12.87;;
14381;SDS011;7275;50.328;8.720;2023-02-12T02:28:12;17.13;;;12.90;;
14381;SDS011;7275;50.328;8.720;2023-02-12T02:30:59;18.83;;;14.30;;
14381;SDS011;7275;50.328;8.720;2023-02-12T02:33:34;15.93;;;12.50;;
14381;SDS011;7275;50.328;8.720;2023-02-12T02:36:10;19.53;;;13.33;;
14381;SDS011;7275;50.328;8.720;2023-02-12T02:38:50;18.70;;;13.13;;
14381;SDS011;7275;50.328;8.720;2023-02-12T02:41:24;17.33;;;12.83;;
14381;SDS011;7275;50.328;8.720;2023-02-12T02:43:57;18.60;;;13.23;;
14381;SDS011;7275;50.328;8.720;2023-02-12T02:46:30;14.90;;;12.33;;
14381;SDS011;7275;50.328;8.720;2023-02-12T02:49:01;17.10;;;13.23;;
14381;SDS011;7275;50.328;8.720;2023-02-12T02:51:33;18.97;;;14.40;;
14381;SDS011;7275;50.328;8.720;2023-02-12T02:54:04;19.73;;;14.43;;
14381;SDS011;7275;50.328;8.720;2023-02-12T02:56:37;17.63;;;13.67;;
14381;SDS011;7275;50.328;8.720;2023-02-12T02:59:09;19.50;;;14.90;;
14381;SDS011;7275;50.328;8.720;2023-02-12T03:01:42;19.10;;;14.63;;
14381;SDS011;7275;50.328;8.720;2023-02-12T03:04:14;19.03;;;14.77;;
14381;SDS011;7275;50.328;8.720;2023-02-12T03:06:47;20.70;;;15.53;;
14381;SDS011;7275;50.328;8.720;2023-02-12T03:09:20;20.20;;;14.30;;
14381;SDS011;7275;50.328;8.720;2023-02-12T03:11:52;19.70;;;14.70;;
14381;SDS011;7275;50.328;8.720;2023-02-12T03:14:24;19.60;;;14.63;;
14381;SDS011;7275;50.328;8.720;2023-02-12T03:16:57;19.67;;;15.57;;
14381;SDS011;7275;50.328;8.720;2023-02-12T03:19:29;20.97;;;15.27;;
14381;SDS011;7275;50.328;8.720;2023-02-12T03:22:02;20.07;;;15.50;;
14381;SDS011;7275;50.328;8.720;2023-02-12T03:24:33;18.00;;;13.80;;
14381;SDS011;7275;50.328;8.720;2023-02-12T03:27:03;20.67;;;15.17;;
14381;SDS011;7275;50.328;8.720;2023-02-12T03:29:35;21.10;;;15.30;;
14381;SDS011;7275;50.328;8.720;2023-02-12T03:32:12;19.63;;;14.93;;
14381;SDS011;7275;50.328;8.720;2023-02-12T03:34:49;19.30;;;15.00;;
14381;SDS011;7275;50.328;8.720;2023-02-12T03:37:23;19.63;;;15.03;;
14381;SDS011;7275;50.328;8.720;2023-02-12T03:39:55;20.60;;;15.30;;
14381;SDS011;7275;50.328;8.720;2023-02-12T03:42:31;19.03;;;13.63;;
14381;SDS011;7275;50.328;8.720;2023-02-12T03:45:03;17.43;;;13.47;;
14381;SDS011;7275;50.328;8.720;2023-02-12T03:47:40;19.77;;;15.07;;
14381;SDS011;7275;50.328;8.720;2023-02-12T03:50:12;16.90;;;13.10;;
14381;SDS011;7275;50.328;8.720;2023-02-12T03:52:43;19.90;;;14.80;;
14381;SDS011;7275;50.328;8.720;2023-02-12T03:55:12;20.70;;;14.90;;
14381;SDS011;7275;50.328;8.720;2023-02-12T03:57:41;20.10;;;14.80;;
14381;SDS011;7275;50.328;8.720;2023-02-12T04:00:12;19.87;;;15.07;;
14381;SDS011;7275;50.328;8.720;2023-02-12T04:02:43;18.57;;;14.10;;
14381;SDS011;7275;50.328;8.720;2023-02-12T04:05:15;21.00;;;14.97;;
14381;SDS011;7275;50.328;8.720;2023-02-12T04:07:45;18.27;;;14.50;;
14381;SDS011;7275;50.328;8.720;2023-02-12T04:10:13;18.10;;;13.60;;
14381;SDS011;7275;50.328;8.720;2023-02-12T04:12:42;19.73;;;14.77;;
14381;SDS011;7275;50.328;8.720;2023-02-12T04:18:19;19.20;;;14.00;;
14381;SDS011;7275;50.328;8.720;2023-02-12T04:20:54;15.63;;;12.40;;
14381;SDS011;7275;50.328;8.720;2023-02-12T04:23:40;16.53;;;12.27;;
14381;SDS011;7275;50.328;8.720;2023-02-12T04:26:17;16.10;;;12.70;;
14381;SDS011;7275;50.328;8.720;2023-02-12T04:28:53;18.07;;;13.33;;
14381;SDS011;7275;50.328;8.720;2023-02-12T04:31:30;17.70;;;13.70;;
14381;SDS011;7275;50.328;8.720;2023-02-12T04:34:06;18.03;;;13.20;;
14381;SDS011;7275;50.328;8.720;2023-02-12T04:36:37;16.63;;;12.60;;
14381;SDS011;7275;50.328;8.720;2023-02-12T04:39:12;17.33;;;13.23;;
14381;SDS011;7275;50.328;8.720;2023-02-12T04:41:44;15.67;;;12.57;;
14381;SDS011;7275;50.328;8.720;2023-02-12T04:44:18;16.97;;;12.97;;
14381;SDS011;7275;50.328;8.720;2023-02-12T04:46:49;17.17;;;13.10;;
14381;SDS011;7275;50.328;8.720;2023-02-12T04:49:19;16.27;;;13.33;;
14381;SDS011;7275;50.328;8.720;2023-02-12T04:51:48;17.90;;;13.63;;
14381;SDS011;7275;50.328;8.720;2023-02-12T04:54:17;18.17;;;13.30;;
14381;SDS011;7275;50.328;8.720;2023-02-12T04:56:45;17.77;;;14.60;;
14381;SDS011;7275;50.328;8.720;2023-02-12T04:59:13;19.10;;;15.13;;
14381;SDS011;7275;50.328;8.720;2023-02-12T05:01:41;21.20;;;14.97;;
14381;SDS011;7275;50.328;8.720;2023-02-12T05:04:11;17.77;;;14.07;;
14381;SDS011;7275;50.328;8.720;2023-02-12T05:06:41;19.57;;;15.10;;
14381;SDS011;7275;50.328;8.720;2023-02-12T05:09:11;19.60;;;15.20;;
14381;SDS011;7275;50.328;8.720;2023-02-12T05:11:41;17.87;;;14.07;;
14381;SDS011;7275;50.328;8.720;2023-02-12T05:14:08;19.97;;;15.00;;
14381;SDS011;7275;50.328;8.720;2023-02-12T05:16:36;18.90;;;15.13;;
14381;SDS011;7275;50.328;8.720;2023-02-12T05:19:04;19.80;;;15.33;;
14381;SDS011;7275;50.328;8.720;2023-02-12T05:21:34;19.40;;;14.23;;
14381;SDS011;7275;50.328;8.720;2023-02-12T05:24:03;18.47;;;14.80;;
14381;SDS011;7275;50.328;8.720;2023-02-12T05:26:31;19.87;;;15.33;;
14381;SDS011;7275;50.328;8.720;2023-02-12T05:28:59;18.83;;;14.53;;
14381;SDS011;7275;50.328;8.720;2023-02-12T05:31:28;18.70;;;15.37;;
14381;SDS011;7275;50.328;8.720;2023-02-12T05:33:56;19.90;;;15.10;;
14381;SDS011;7275;50.328;8.720;2023-02-12T05:36:23;17.30;;;14.50;;
14381;SDS011;7275;50.328;8.720;2023-02-12T05:38:52;19.63;;;15.13;;
14381;SDS011;7275;50.328;8.720;2023-02-12T05:41:24;18.97;;;14.93;;
14381;SDS011;7275;50.328;8.720;2023-02-12T05:43:52;16.97;;;13.50;;
14381;SDS011;7275;50.328;8.720;2023-02-12T05:46:20;17.70;;;13.43;;
14381;SDS011;7275;50.328;8.720;2023-02-12T05:48:47;20.07;;;15.27;;
14381;SDS011;7275;50.328;8.720;2023-02-12T05:51:16;19.27;;;14.77;;
14381;SDS011;7275;50.328;8.720;2023-02-12T05:53:47;18.43;;;14.27;;
14381;SDS011;7275;50.328;8.720;2023-02-12T05:56:16;18.30;;;14.37;;
14381;SDS011;7275;50.328;8.720;2023-02-12T05:58:47;19.60;;;14.87;;
14381;SDS011;7275;50.328;8.720;2023-02-12T06:01:18;17.57;;;13.63;;
14381;SDS011;7275;50.328;8.720;2023-02-12T06:03:48;20.00;;;14.80;;
14381;SDS011;7275;50.328;8.720;2023-02-12T06:06:15;17.87;;;14.27;;
14381;SDS011;7275;50.328;8.720;2023-02-12T06:08:43;18.67;;;14.47;;
14381;SDS011;7275;50.328;8.720;2023-02-12T06:11:13;20.13;;;15.07;;
14381;SDS011;7275;50.328;8.720;2023-02-12T06:13:42;18.80;;;14.23;;
14381;SDS011;7275;50.328;8.720;2023-02-12T06:16:16;19.70;;;14.93;;
14381;SDS011;7275;50.328;8.720;2023-02-12T06:18:45;16.80;;;13.97;;
14381;SDS011;7275;50.328;8.720;2023-02-12T06:21:13;19.97;;;14.77;;
14381;SDS011;7275;50.328;8.720;2023-02-12T06:23:41;19.37;;;14.43;;
14381;SDS011;7275;50.328;8.720;2023-02-12T06:26:09;17.30;;;13.90;;
14381;SDS011;7275;50.328;8.720;2023-02-12T06:28:36;17.50;;;13.70;;
14381;SDS011;7275;50.328;8.720;2023-02-12T06:31:04;16.83;;;13.60;;
14381;SDS011;7275;50.328;8.720;2023-02-12T06:33:33;17.93;;;14.47;;
14381;SDS011;7275;50.328;8.720;2023-02-12T06:36:02;16.90;;;13.67;;
14381;SDS011;7275;50.328;8.720;2023-02-12T06:38:30;17.40;;;14.07;;
14381;SDS011;7275;50.328;8.720;2023-02-12T06:41:00;19.27;;;14.80;;
14381;SDS011;7275;50.328;8.720;2023-02-12T06:43:28;16.77;;;13.83;;
14381;SDS011;7275;50.328;8.720;2023-02-12T06:45:59;18.83;;;14.03;;
14381;SDS011;7275;50.328;8.720;2023-02-12T06:48:27;19.03;;;14.87;;
14381;SDS011;7275;50.328;8.720;2023-02-12T06:51:01;21.00;;;15.90;;
14381;SDS011;7275;50.328;8.720;2023-02-12T06:53:31;18.60;;;14.53;;
14381;SDS011;7275;50.328;8.720;2023-02-12T06:55:59;18.70;;;14.53;;
14381;SDS011;7275;50.328;8.720;2023-02-12T06:58:27;18.67;;;14.37;;
14381;SDS011;7275;50.328;8.720;2023-02-12T07:00:55;17.60;;;14.23;;
14381;SDS011;7275;50.328;8.720;2023-02-12T07:03:22;21.60;;;15.67;;
14381;SDS011;7275;50.328;8.720;2023-02-12T07:05:50;19.20;;;15.27;;
14381;SDS011;7275;50.328;8.720;2023-02-12T07:08:18;19.33;;;14.97;;
14381;SDS011;7275;50.328;8.720;2023-02-12T07:10:47;22.87;;;15.90;;
14381;SDS011;7275;50.328;8.720;2023-02-12T07:13:15;20.07;;;14.57;;
14381;SDS011;7275;50.328;8.720;2023-02-12T07:15:43;18.67;;;15.00;;
14381;SDS011;7275;50.328;8.720;2023-02-12T07:18:10;22.17;;;16.47;;
14381;SDS011;7275;50.328;8.720;2023-02-12T07:20:38;19.97;;;14.70;;
14381;SDS011;7275;50.328;8.720;2023-02-12T07:23:05;20.17;;;15.90;;
14381;SDS011;7275;50.328;8.720;2023-02-12T07:25:34;18.43;;;15.10;;
14381;SDS011;7275;50.328;8.720;2023-02-12T07:28:02;19.10;;;14.10;;
14381;SDS011;7275;50.328;8.720;2023-02-12T07:30:29;18.47;;;13.23;;
14381;SDS011;7275;50.328;8.720;2023-02-12T07:32:57;16.43;;;13.00;;
14381;SDS011;7275;50.328;8.720;2023-02-12T07:35:24;20.67;;;14.43;;
14381;SDS011;7275;50.328;8.720;2023-02-12T07:37:52;21.07;;;15.63;;
14381;SDS011;7275;50.328;8.720;2023-02-12T07:40:20;20.37;;;15.03;;
14381;SDS011;7275;50.328;8.720;2023-02-12T07:42:48;18.77;;;14.30;;
14381;SDS011;7275;50.328;8.720;2023-02-12T07:45:21;19.10;;;13.83;;
14381;SDS011;7275;50.328;8.720;2023-02-12T07:47:49;18.23;;;14.70;;
14381;SDS011;7275;50.328;8.720;2023-02-12T07:50:16;18.37;;;14.10;;
14381;SDS011;7275;50.328;8.720;2023-02-12T07:52:44;19.20;;;15.10;;
14381;SDS011;7275;50.328;8.720;2023-02-12T07:55:14;19.17;;;15.43;;
14381;SDS011;7275;50.328;8.720;2023-02-12T07:57:42;18.37;;;15.03;;
14381;SDS011;7275;50.328;8.720;2023-02-12T08:00:12;18.57;;;14.87;;
14381;SDS011;7275;50.328;8.720;2023-02-12T08:02:40;18.73;;;14.43;;
14381;SDS011;7275;50.328;8.720;2023-02-12T08:05:08;20.47;;;15.13;;
14381;SDS011;7275;50.328;8.720;2023-02-12T08:07:35;20.63;;;15.80;;
14381;SDS011;7275;50.328;8.720;2023-02-12T08:10:03;17.60;;;14.23;;
14381;SDS011;7275;50.328;8.720;2023-02-12T08:12:31;19.37;;;15.50;;
14381;SDS011;7275;50.328;8.720;2023-02-12T08:14:59;16.67;;;13.67;;
14381;SDS011;7275;50.328;8.720;2023-02-12T08:17:28;20.10;;;15.67;;
14381;SDS011;7275;50.328;8.720;2023-02-12T08:19:55;18.53;;;14.70;;
14381;SDS011;7275;50.328;8.720;2023-02-12T08:22:23;18.67;;;14.90;;
14381;SDS011;7275;50.328;8.720;2023-02-12T08:24:50;19.53;;;15.93;;
14381;SDS011;7275;50.328;8.720;2023-02-12T08:27:18;22.03;;;17.00;;
14381;SDS011;7275;50.328;8.720;2023-02-12T08:29:45;22.97;;;17.87;;
14381;SDS011;7275;50.328;8.720;2023-02-12T08:32:13;23.20;;;18.13;;
14381;SDS011;7275;50.328;8.720;2023-02-12T08:34:43;24.73;;;18.93;;
14381;SDS011;7275;50.328;8.720;2023-02-12T08:37:10;24.77;;;19.50;;
14381;SDS011;7275;50.328;8.720;2023-02-12T08:39:38;24.67;;;18.63;;
14381;SDS011;7275;50.328;8.720;2023-02-12T08:42:05;25.10;;;19.30;;
14381;SDS011;7275;50.328;8.720;2023-02-12T08:44:33;26.77;;;20.70;;
14381;SDS011;7275;50.328;8.720;2023-02-12T08:47:01;23.63;;;18.37;;
14381;SDS011;7275;50.328;8.720;2023-02-12T08:49:30;23.43;;;18.73;;
14381;SDS011;7275;50.328;8.720;2023-02-12T08:51:59;26.23;;;19.73;;
14381;SDS011;7275;50.328;8.720;2023-02-12T08:54:28;24.63;;;19.60;;
14381;SDS011;7275;50.328;8.720;2023-02-12T08:56:57;23.60;;;18.77;;
14381;SDS011;7275;50.328;8.720;2023-02-12T08:59:26;23.97;;;19.60;;
14381;SDS011;7275;50.328;8.720;2023-02-12T09:01:54;26.00;;;19.50;;
14381;SDS011;7275;50.328;8.720;2023-02-12T09:04:23;25.77;;;20.17;;
14381;SDS011;7275;50.328;8.720;2023-02-12T09:06:52;23.47;;;19.70;;
14381;SDS011;7275;50.328;8.720;2023-02-12T09:09:21;25.03;;;20.30;;
14381;SDS011;7275;50.328;8.720;2023-02-12T09:11:49;25.13;;;19.90;;
14381;SDS011;7275;50.328;8.720;2023-02-12T09:14:17;26.90;;;20.20;;
14381;SDS011;7275;50.328;8.720;2023-02-12T09:16:48;27.13;;;20.37;;
14381;SDS011;7275;50.328;8.720;2023-02-12T09:19:18;26.57;;;21.23;;
14381;SDS011;7275;50.328;8.720;2023-02-12T09:21:49;29.40;;;22.10;;
14381;SDS011;7275;50.328;8.720;2023-02-12T09:24:22;26.23;;;20.97;;
14381;SDS011;7275;50.328;8.720;2023-02-12T09:26:50;27.87;;;20.90;;
14381;SDS011;7275;50.328;8.720;2023-02-12T09:29:17;25.57;;;19.93;;
14381;SDS011;7275;50.328;8.720;2023-02-12T09:31:45;23.47;;;18.53;;
14381;SDS011;7275;50.328;8.720;2023-02-12T09:34:12;26.67;;;20.03;;
14381;SDS011;7275;50.328;8.720;2023-02-12T09:36:40;27.30;;;21.13;;
14381;SDS011;7275;50.328;8.720;2023-02-12T09:39:07;27.97;;;21.13;;
14381;SDS011;7275;50.328;8.720;2023-02-12T09:44:41;23.10;;;18.40;;
14381;SDS011;7275;50.328;8.720;2023-02-12T09:47:14;25.73;;;20.37;;
14381;SDS011;7275;50.328;8.720;2023-02-12T09:50:02;28.73;;;20.27;;
14381;SDS011;7275;50.328;8.720;2023-02-12T09:52:39;26.50;;;21.80;;
14381;SDS011;7275;50.328;8.720;2023-02-12T09:55:09;30.47;;;24.60;;
14381;SDS011;7275;50.328;8.720;2023-02-12T09:57:40;29.17;;;22.90;;
14381;SDS011;7275;50.328;8.720;2023-02-12T10:00:11;30.87;;;23.40;;
14381;SDS011;7275;50.328;8.720;2023-02-12T10:02:42;26.23;;;20.27;;
14381;SDS011;7275;50.328;8.720;2023-02-12T10:05:13;27.53;;;21.00;;
14381;SDS011;7275;50.328;8.720;2023-02-12T10:07:49;27.10;;;20.43;;
14381;SDS011;7275;50.328;8.720;2023-02-12T10:10:33;25.97;;;20.17;;
14381;SDS011;7275;50.328;8.720;2023-02-12T10:13:12;25.73;;;20.07;;
14381;SDS011;7275;50.328;8.720;2023-02-12T10:15:50;25.90;;;20.23;;
14381;SDS011;7275;50.328;8.720;2023-02-12T10:18:34;23.93;;;19.07;;
14381;SDS011;7275;50.328;8.720;2023-02-12T10:21:13;27.07;;;21.10;;
14381;SDS011;7275;50.328;8.720;2023-02-12T10:23:54;25.90;;;19.83;;
14381;SDS011;7275;50.328;8.720;2023-02-12T10:26:32;26.87;;;20.20;;
14381;SDS011;7275;50.328;8.720;2023-02-12T10:29:07;24.53;;;19.10;;
14381;SDS011;7275;50.328;8.720;2023-02-12T10:31:41;26.60;;;20.30;;
14381;SDS011;7275;50.328;8.720;2023-02-12T10:34:13;26.23;;;20.33;;
14381;SDS011;7275;50.328;8.720;2023-02-12T10:36:44;27.47;;;20.40;;
14381;SDS011;7275;50.328;8.720;2023-02-12T10:39:16;27.67;;;21.27;;
14381;SDS011;7275;50.328;8.720;2023-02-12T10:41:48;26.30;;;20.53;;
14381;SDS011;7275;50.328;8.720;2023-02-12T10:44:21;27.93;;;20.77;;
14381;SDS011;7275;50.328;8.720;2023-02-12T10:46:50;28.67;;;21.30;;
14381;SDS011;7275;50.328;8.720;2023-02-12T10:49:18;26.63;;;19.97;;
14381;SDS011;7275;50.328;8.720;2023-02-12T10:51:51;24.33;;;18.17;;
14381;SDS011;7275;50.328;8.720;2023-02-12T10:54:30;22.70;;;17.63;;
14381;SDS011;7275;50.328;8.720;2023-02-12T10:59:49;22.03;;;17.40;;
14381;SDS011;7275;50.328;8.720;2023-02-12T11:02:22;22.17;;;16.70;;
14381;SDS011;7275;50.328;8.720;2023-02-12T11:04:52;21.53;;;16.50;;
14381;SDS011;7275;50.328;8.720;2023-02-12T11:07:21;18.77;;;14.63;;
14381;SDS011;7275;50.328;8.720;2023-02-12T11:09:50;19.63;;;15.83;;
14381;SDS011;7275;50.328;8.720;2023-02-12T11:12:29;21.37;;;16.27;;
14381;SDS011;7275;50.328;8.720;2023-02-12T11:14:59;22.90;;;17.53;;
14381;SDS011;7275;50.328;8.720;2023-02-12T11:17:32;23.33;;;17.67;;
14381;SDS011;7275;50.328;8.720;2023-02-12T11:20:02;21.33;;;17.17;;
14381;SDS011;7275;50.328;8.720;2023-02-12T11:22:35;21.60;;;17.13;;
14381;SDS011;7275;50.328;8.720;2023-02-12T11:25:07;22.13;;;18.13;;
14381;SDS011;7275;50.328;8.720;2023-02-12T11:27:42;23.33;;;18.17;;
14381;SDS011;7275;50.328;8.720;2023-02-12T11:30:11;22.10;;;18.17;;
14381;SDS011;7275;50.328;8.720;2023-02-12T11:32:43;21.20;;;17.13;;
14381;SDS011;7275;50.328;8.720;2023-02-12T11:35:12;20.37;;;16.90;;
14381;SDS011;7275;50.328;8.720;2023-02-12T11:37:44;19.70;;;16.60;;
14381;SDS011;7275;50.328;8.720;2023-02-12T11:40:15;19.23;;;16.27;;
14381;SDS011;7275;50.328;8.720;2023-02-12T11:42:46;21.20;;;15.93;;
14381;SDS011;7275;50.328;8.720;2023-02-12T11:45:16;20.27;;;16.53;;
14381;SDS011;7275;50.328;8.720;2023-02-12T11:47:47;18.85;;;16.20;;
14381;SDS011;7275;50.328;8.720;2023-02-12T11:50:18;18.60;;;16.00;;
14381;SDS011;7275;50.328;8.720;2023-02-12T11:52:52;16.85;;;15.10;;
14381;SDS011;7275;50.328;8.720;2023-02-12T11:55:22;19.08;;;16.65;;
14381;SDS011;7275;50.328;8.720;2023-02-12T11:57:52;17.48;;;15.57;;
14381;SDS011;7275;50.328;8.720;2023-02-12T12:00:27;16.85;;;15.07;;
14381;SDS011;7275;50.328;8.720;2023-02-12T12:03:01;16.63;;;14.93;;
14381;SDS011;7275;50.328;8.720;2023-02-12T12:05:37;17.27;;;15.45;;
14381;SDS011;7275;50.328;8.720;2023-02-12T12:08:11;16.60;;;14.93;;
14381;SDS011;7275;50.328;8.720;2023-02-12T12:10:46;16.17;;;14.48;;
14381;SDS011;7275;50.328;8.720;2023-02-12T12:13:18;16.23;;;14.55;;
14381;SDS011;7275;50.328;8.720;2023-02-12T12:15:52;16.10;;;14.45;;
14381;SDS011;7275;50.328;8.720;2023-02-12T12:18:45;15.02;;;13.43;;
14381;SDS011;7275;50.328;8.720;2023-02-12T12:21:34;15.30;;;13.75;;
14381;SDS011;7275;50.328;8.720;2023-02-12T12:24:08;16.38;;;14.73;;
14381;SDS011;7275;50.328;8.720;2023-02-12T12:26:41;15.65;;;14.10;;
14381;SDS011;7275;50.328;8.720;2023-02-12T12:29:15;15.70;;;14.10;;
14381;SDS011;7275;50.328;8.720;2023-02-12T12:31:49;14.57;;;13.07;;
14381;SDS011;7275;50.328;8.720;2023-02-12T12:34:22;14.63;;;13.13;;
14381;SDS011;7275;50.328;8.720;2023-02-12T12:37:00;15.68;;;14.07;;
14381;SDS011;7275;50.328;8.720;2023-02-12T12:39:42;14.93;;;13.50;;
14381;SDS011;7275;50.328;8.720;2023-02-12T12:42:26;15.07;;;13.48;;
14381;SDS011;7275;50.328;8.720;2023-02-12T12:45:31;15.70;;;14.05;;
14381;SDS011;7275;50.328;8.720;2023-02-12T12:48:15;15.82;;;14.18;;
14381;SDS011;7275;50.328;8.720;2023-02-12T12:50:56;16.92;;;15.13;;
14381;SDS011;7275;50.328;8.720;2023-02-12T12:53:41;15.80;;;14.10;;
14381;SDS011;7275;50.328;8.720;2023-02-12T12:59:19;15.80;;;14.18;;
14381;SDS011;7275;50.328;8.720;2023-02-12T13:02:18;14.95;;;13.35;;
14381;SDS011;7275;50.328;8.720;2023-02-12T13:05:22;14.07;;;12.60;;
14381;SDS011;7275;50.328;8.720;2023-02-12T13:08:11;14.60;;;13.07;;
14381;SDS011;7275;50.328;8.720;2023-02-12T13:10:53;14.63;;;13.13;;
14381;SDS011;7275;50.328;8.720;2023-02-12T13:13:25;13.98;;;12.57;;
14381;SDS011;7275;50.328;8.720;2023-02-12T13:15:59;14.77;;;13.23;;
14381;SDS011;7275;50.328;8.720;2023-02-12T13:18:38;15.02;;;13.48;;
14381;SDS011;7275;50.328;8.720;2023-02-12T13:21:15;14.38;;;12.90;;
14381;SDS011;7275;50.328;8.720;2023-02-12T13:23:49;14.75;;;13.20;;
14381;SDS011;7275;50.328;8.720;2023-02-12T13:26:22;15.55;;;13.98;;
14381;SDS011;7275;50.328;8.720;2023-02-12T13:28:57;14.57;;;13.18;;
14381;SDS011;7275;50.328;8.720;2023-02-12T13:31:30;13.50;;;12.20;;
14381;SDS011;7275;50.328;8.720;2023-02-12T13:34:12;13.73;;;12.43;;
14381;SDS011;7275;50.328;8.720;2023-02-12T13:36:42;13.68;;;12.30;;
14381;SDS011;7275;50.328;8.720;2023-02-12T13:39:15;13.23;;;11.93;;
14381;SDS011;7275;50.328;8.720;2023-02-12T13:41:55;12.57;;;11.30;;
14381;SDS011;7275;50.328;8.720;2023-02-12T13:44:29;12.15;;;10.95;;
14381;SDS011;7275;50.328;8.720;2023-02-12T13:47:05;12.27;;;11.07;;
14381;SDS011;7275;50.328;8.720;2023-02-12T13:49:43;10.57;;;9.52;;
14381;SDS011;7275;50.328;8.720;2023-02-12T13:52:18;10.88;;;9.77;;
14381;SDS011;7275;50.328;8.720;2023-02-12T13:54:56;9.73;;;8.73;;
14381;SDS011;7275;50.328;8.720;2023-02-12T13:57:36;10.53;;;9.17;;
14381;SDS011;7275;50.328;8.720;2023-02-12T14:00:04;11.17;;;9.97;;
14381;SDS011;7275;50.328;8.720;2023-02-12T14:02:52;11.20;;;9.73;;
14381;SDS011;7275;50.328;8.720;2023-02-12T14:05:24;11.10;;;9.10;;
14381;SDS011;7275;50.328;8.720;2023-02-12T14:07:54;10.73;;;9.10;;
14381;SDS011;7275;50.328;8.720;2023-02-12T14:10:29;9.77;;;8.13;;
14381;SDS011;7275;50.328;8.720;2023-02-12T14:13:08;10.17;;;8.40;;
14381;SDS011;7275;50.328;8.720;2023-02-12T14:15:40;10.37;;;8.60;;
14381;SDS011;7275;50.328;8.720;2023-02-12T14:18:24;8.20;;;7.33;;
14381;SDS011;7275;50.328;8.720;2023-02-12T14:27:03;8.20;;;6.63;;
14381;SDS011;7275;50.328;8.720;2023-02-12T14:29:46;7.53;;;6.50;;
14381;SDS011;7275;50.328;8.720;2023-02-12T14:35:29;7.07;;;6.33;;
14381;SDS011;7275;50.328;8.720;2023-02-12T14:37:59;8.33;;;6.83;;
14381;SDS011;7275;50.328;8.720;2023-02-12T14:40:38;7.77;;;6.53;;
14381;SDS011;7275;50.328;8.720;2023-02-12T14:43:27;7.33;;;5.83;;
14381;SDS011;7275;50.328;8.720;2023-02-12T14:45:58;6.97;;;6.17;;
14381;SDS011;7275;50.328;8.720;2023-02-12T14:49:12;7.17;;;6.00;;
14381;SDS011;7275;50.328;8.720;2023-02-12T14:51:49;7.80;;;6.17;;
14381;SDS011;7275;50.328;8.720;2023-02-12T14:54:20;6.90;;;5.70;;
14381;SDS011;7275;50.328;8.720;2023-02-12T14:56:56;6.10;;;5.40;;
14381;SDS011;7275;50.328;8.720;2023-02-12T14:59:30;5.17;;;4.50;;
14381;SDS011;7275;50.328;8.720;2023-02-12T15:02:00;4.37;;;3.97;;
14381;SDS011;7275;50.328;8.720;2023-02-12T15:04:32;5.80;;;5.13;;
14381;SDS011;7275;50.328;8.720;2023-02-12T15:07:04;3.80;;;3.40;;
14381;SDS011;7275;50.328;8.720;2023-02-12T15:09:38;3.37;;;3.07;;
14381;SDS011;7275;50.328;8.720;2023-02-12T15:12:14;4.13;;;3.53;;
14381;SDS011;7275;50.328;8.720;2023-02-12T15:14:47;5.43;;;4.73;;
14381;SDS011;7275;50.328;8.720;2023-02-12T15:17:21;18.93;;;12.97;;
14381;SDS011;7275;50.328;8.720;2023-02-12T15:19:56;11.63;;;8.83;;
14381;SDS011;7275;50.328;8.720;2023-02-12T15:22:28;8.73;;;7.03;;
14381;SDS011;7275;50.328;8.720;2023-02-12T15:25:14;7.90;;;6.53;;